Hammond, Louisiana
Current Conditions -  °F | °C
As of 10:35 PM on Friday 19 Dec 2014 (Local Time) from K1L0 Reporting Station
Light Rain Light Rain  
Wind Chill: 52°   Ceiling: 500
Heat Index: 52°   Visibility: 5mi
Dew Point: 50°   Wind: 6mph
Humidity: 92%   Direction: 60°ENE
Pressure: 30.09"   Gusts: NA
Location:  30.5°N, 90.46°W
Report Text: K1L0 200435Z AUTO 06005KT 5SM -RA OVC005 11/10 A3009 RMK AO2 P0002 T01110098
Loading
Personal Weather Stations






























Interactive Weather Map New forecast layout! Learn more

10-Day Weather Forecast

Advertisements
Track Severe Weather on mobile